sensor_id;sensor_type;location;lat;lon;timestamp;P1;durP1;ratioP1;P2;durP2;ratioP2
2538;SDS011;1280;49.760;9.664;2022-11-20T00:00:55;51.30;;;26.35;;
2538;SDS011;1280;49.760;9.664;2022-11-20T00:03:23;52.67;;;27.23;;
2538;SDS011;1280;49.760;9.664;2022-11-20T00:05:52;54.38;;;27.10;;
2538;SDS011;1280;49.760;9.664;2022-11-20T00:08:20;56.90;;;25.30;;
2538;SDS011;1280;49.760;9.664;2022-11-20T00:10:48;48.35;;;25.58;;
2538;SDS011;1280;49.760;9.664;2022-11-20T00:13:16;46.75;;;24.45;;
2538;SDS011;1280;49.760;9.664;2022-11-20T00:15:44;44.70;;;23.50;;
2538;SDS011;1280;49.760;9.664;2022-11-20T00:18:12;43.78;;;23.05;;
2538;SDS011;1280;49.760;9.664;2022-11-20T00:20:40;51.33;;;26.05;;
2538;SDS011;1280;49.760;9.664;2022-11-20T00:23:09;46.63;;;24.95;;
2538;SDS011;1280;49.760;9.664;2022-11-20T00:25:37;50.63;;;26.08;;
2538;SDS011;1280;49.760;9.664;2022-11-20T00:28:05;44.40;;;25.02;;
2538;SDS011;1280;49.760;9.664;2022-11-20T00:30:33;47.50;;;25.73;;
2538;SDS011;1280;49.760;9.664;2022-11-20T00:33:01;42.53;;;24.17;;
2538;SDS011;1280;49.760;9.664;2022-11-20T00:35:29;46.20;;;24.30;;
2538;SDS011;1280;49.760;9.664;2022-11-20T00:37:57;50.45;;;24.90;;
2538;SDS011;1280;49.760;9.664;2022-11-20T00:40:26;47.38;;;24.63;;
2538;SDS011;1280;49.760;9.664;2022-11-20T00:42:54;47.15;;;24.48;;
2538;SDS011;1280;49.760;9.664;2022-11-20T00:45:22;42.92;;;23.58;;
2538;SDS011;1280;49.760;9.664;2022-11-20T00:47:50;48.28;;;24.27;;
2538;SDS011;1280;49.760;9.664;2022-11-20T00:50:18;48.47;;;24.25;;
2538;SDS011;1280;49.760;9.664;2022-11-20T00:52:46;46.15;;;23.67;;
2538;SDS011;1280;49.760;9.664;2022-11-20T00:55:14;48.97;;;23.13;;
2538;SDS011;1280;49.760;9.664;2022-11-20T00:57:43;48.38;;;24.98;;
2538;SDS011;1280;49.760;9.664;2022-11-20T01:00:11;48.13;;;23.50;;
2538;SDS011;1280;49.760;9.664;2022-11-20T01:02:40;45.50;;;24.45;;
2538;SDS011;1280;49.760;9.664;2022-11-20T01:05:08;44.30;;;22.52;;
2538;SDS011;1280;49.760;9.664;2022-11-20T01:07:36;43.72;;;23.38;;
2538;SDS011;1280;49.760;9.664;2022-11-20T01:10:04;43.60;;;24.60;;
2538;SDS011;1280;49.760;9.664;2022-11-20T01:12:33;48.90;;;25.20;;
2538;SDS011;1280;49.760;9.664;2022-11-20T01:15:02;45.55;;;24.23;;
2538;SDS011;1280;49.760;9.664;2022-11-20T01:17:31;43.40;;;22.88;;
2538;SDS011;1280;49.760;9.664;2022-11-20T01:19:59;44.85;;;23.25;;
2538;SDS011;1280;49.760;9.664;2022-11-20T01:22:27;45.13;;;24.25;;
2538;SDS011;1280;49.760;9.664;2022-11-20T01:24:55;48.20;;;25.02;;
2538;SDS011;1280;49.760;9.664;2022-11-20T01:27:23;42.78;;;22.45;;
2538;SDS011;1280;49.760;9.664;2022-11-20T01:29:51;44.50;;;23.15;;
2538;SDS011;1280;49.760;9.664;2022-11-20T01:32:27;47.53;;;24.58;;
2538;SDS011;1280;49.760;9.664;2022-11-20T01:34:55;41.72;;;22.88;;
2538;SDS011;1280;49.760;9.664;2022-11-20T01:37:23;49.88;;;25.33;;
2538;SDS011;1280;49.760;9.664;2022-11-20T01:39:51;47.38;;;24.25;;
2538;SDS011;1280;49.760;9.664;2022-11-20T01:42:19;56.15;;;26.80;;
2538;SDS011;1280;49.760;9.664;2022-11-20T01:48:19;48.38;;;24.30;;
2538;SDS011;1280;49.760;9.664;2022-11-20T01:50:50;71.82;;;33.90;;
2538;SDS011;1280;49.760;9.664;2022-11-20T01:53:21;58.80;;;29.40;;
2538;SDS011;1280;49.760;9.664;2022-11-20T01:55:53;63.22;;;28.77;;
2538;SDS011;1280;49.760;9.664;2022-11-20T01:58:25;51.20;;;24.67;;
2538;SDS011;1280;49.760;9.664;2022-11-20T02:00:55;50.00;;;25.10;;
2538;SDS011;1280;49.760;9.664;2022-11-20T02:03:25;99.38;;;41.40;;
2538;SDS011;1280;49.760;9.664;2022-11-20T02:05:55;58.75;;;29.33;;
2538;SDS011;1280;49.760;9.664;2022-11-20T02:08:28;62.33;;;31.17;;
2538;SDS011;1280;49.760;9.664;2022-11-20T02:10:58;70.30;;;34.08;;
2538;SDS011;1280;49.760;9.664;2022-11-20T02:13:26;104.25;;;42.40;;
2538;SDS011;1280;49.760;9.664;2022-11-20T02:16:12;63.83;;;29.52;;
2538;SDS011;1280;49.760;9.664;2022-11-20T02:18:44;47.60;;;25.05;;
2538;SDS011;1280;49.760;9.664;2022-11-20T02:21:16;45.47;;;24.70;;
2538;SDS011;1280;49.760;9.664;2022-11-20T02:24:02;48.40;;;25.27;;
2538;SDS011;1280;49.760;9.664;2022-11-20T02:26:35;45.20;;;23.02;;
2538;SDS011;1280;49.760;9.664;2022-11-20T02:29:08;44.63;;;22.15;;
2538;SDS011;1280;49.760;9.664;2022-11-20T02:31:37;42.20;;;21.75;;
2538;SDS011;1280;49.760;9.664;2022-11-20T02:34:07;45.65;;;23.30;;
2538;SDS011;1280;49.760;9.664;2022-11-20T02:36:35;41.58;;;22.05;;
2538;SDS011;1280;49.760;9.664;2022-11-20T02:39:07;35.33;;;19.65;;
2538;SDS011;1280;49.760;9.664;2022-11-20T02:41:38;44.60;;;22.48;;
2538;SDS011;1280;49.760;9.664;2022-11-20T02:44:06;46.78;;;22.90;;
2538;SDS011;1280;49.760;9.664;2022-11-20T02:46:34;43.58;;;21.45;;
2538;SDS011;1280;49.760;9.664;2022-11-20T02:49:02;39.85;;;21.50;;
2538;SDS011;1280;49.760;9.664;2022-11-20T02:51:31;41.13;;;21.83;;
2538;SDS011;1280;49.760;9.664;2022-11-20T02:53:59;43.92;;;22.30;;
2538;SDS011;1280;49.760;9.664;2022-11-20T02:56:29;41.63;;;22.40;;
2538;SDS011;1280;49.760;9.664;2022-11-20T02:58:57;41.83;;;22.48;;
2538;SDS011;1280;49.760;9.664;2022-11-20T03:01:25;47.80;;;23.10;;
2538;SDS011;1280;49.760;9.664;2022-11-20T03:03:53;45.38;;;23.42;;
2538;SDS011;1280;49.760;9.664;2022-11-20T03:06:22;50.25;;;23.83;;
2538;SDS011;1280;49.760;9.664;2022-11-20T03:08:50;48.30;;;24.27;;
2538;SDS011;1280;49.760;9.664;2022-11-20T03:11:18;46.50;;;23.63;;
2538;SDS011;1280;49.760;9.664;2022-11-20T03:13:48;52.47;;;27.00;;
2538;SDS011;1280;49.760;9.664;2022-11-20T03:16:17;58.55;;;26.88;;
2538;SDS011;1280;49.760;9.664;2022-11-20T03:18:46;58.70;;;28.02;;
2538;SDS011;1280;49.760;9.664;2022-11-20T03:21:14;49.80;;;25.38;;
2538;SDS011;1280;49.760;9.664;2022-11-20T03:23:43;52.10;;;24.55;;
2538;SDS011;1280;49.760;9.664;2022-11-20T03:26:12;52.22;;;25.70;;
2538;SDS011;1280;49.760;9.664;2022-11-20T03:28:41;53.40;;;24.90;;
2538;SDS011;1280;49.760;9.664;2022-11-20T03:31:15;58.67;;;25.95;;
2538;SDS011;1280;49.760;9.664;2022-11-20T03:33:44;50.35;;;25.30;;
2538;SDS011;1280;49.760;9.664;2022-11-20T03:36:14;55.72;;;24.20;;
2538;SDS011;1280;49.760;9.664;2022-11-20T03:38:43;52.75;;;25.50;;
2538;SDS011;1280;49.760;9.664;2022-11-20T03:41:12;48.40;;;23.83;;
2538;SDS011;1280;49.760;9.664;2022-11-20T03:43:41;50.83;;;24.25;;
2538;SDS011;1280;49.760;9.664;2022-11-20T03:46:09;55.53;;;26.48;;
2538;SDS011;1280;49.760;9.664;2022-11-20T03:48:38;58.13;;;30.42;;
2538;SDS011;1280;49.760;9.664;2022-11-20T03:51:07;56.10;;;28.55;;
2538;SDS011;1280;49.760;9.664;2022-11-20T03:53:36;48.60;;;24.67;;
2538;SDS011;1280;49.760;9.664;2022-11-20T03:56:04;55.30;;;27.55;;
2538;SDS011;1280;49.760;9.664;2022-11-20T03:58:33;47.05;;;23.20;;
2538;SDS011;1280;49.760;9.664;2022-11-20T04:01:05;48.10;;;24.75;;
2538;SDS011;1280;49.760;9.664;2022-11-20T04:03:34;53.28;;;24.90;;
2538;SDS011;1280;49.760;9.664;2022-11-20T04:06:06;48.30;;;24.27;;
2538;SDS011;1280;49.760;9.664;2022-11-20T04:08:36;53.00;;;25.75;;
2538;SDS011;1280;49.760;9.664;2022-11-20T04:11:08;48.72;;;24.40;;
2538;SDS011;1280;49.760;9.664;2022-11-20T04:13:40;51.58;;;24.83;;
2538;SDS011;1280;49.760;9.664;2022-11-20T04:16:09;52.92;;;24.42;;
2538;SDS011;1280;49.760;9.664;2022-11-20T04:18:37;52.67;;;24.33;;
2538;SDS011;1280;49.760;9.664;2022-11-20T04:21:06;43.03;;;22.35;;
2538;SDS011;1280;49.760;9.664;2022-11-20T04:23:35;43.50;;;23.00;;
2538;SDS011;1280;49.760;9.664;2022-11-20T04:26:03;46.70;;;22.60;;
2538;SDS011;1280;49.760;9.664;2022-11-20T04:28:31;49.63;;;25.70;;
2538;SDS011;1280;49.760;9.664;2022-11-20T04:31:01;50.88;;;24.63;;
2538;SDS011;1280;49.760;9.664;2022-11-20T04:33:31;43.00;;;21.75;;
2538;SDS011;1280;49.760;9.664;2022-11-20T04:36:00;42.90;;;22.38;;
2538;SDS011;1280;49.760;9.664;2022-11-20T04:38:31;50.80;;;23.55;;
2538;SDS011;1280;49.760;9.664;2022-11-20T04:40:59;44.33;;;24.02;;
2538;SDS011;1280;49.760;9.664;2022-11-20T04:43:28;46.15;;;22.55;;
2538;SDS011;1280;49.760;9.664;2022-11-20T04:45:57;46.25;;;23.73;;
2538;SDS011;1280;49.760;9.664;2022-11-20T04:48:26;52.40;;;24.40;;
2538;SDS011;1280;49.760;9.664;2022-11-20T04:50:55;48.35;;;24.10;;
2538;SDS011;1280;49.760;9.664;2022-11-20T04:53:23;56.47;;;26.77;;
2538;SDS011;1280;49.760;9.664;2022-11-20T04:55:52;41.92;;;22.40;;
2538;SDS011;1280;49.760;9.664;2022-11-20T04:58:26;46.35;;;22.67;;
2538;SDS011;1280;49.760;9.664;2022-11-20T05:01:00;49.33;;;24.77;;
2538;SDS011;1280;49.760;9.664;2022-11-20T05:03:29;44.15;;;23.60;;
2538;SDS011;1280;49.760;9.664;2022-11-20T05:05:59;42.53;;;22.38;;
2538;SDS011;1280;49.760;9.664;2022-11-20T05:08:27;39.28;;;22.08;;
2538;SDS011;1280;49.760;9.664;2022-11-20T05:11:00;52.45;;;26.48;;
2538;SDS011;1280;49.760;9.664;2022-11-20T05:13:29;39.42;;;21.25;;
2538;SDS011;1280;49.760;9.664;2022-11-20T05:16:00;45.47;;;22.98;;
2538;SDS011;1280;49.760;9.664;2022-11-20T05:18:29;42.20;;;22.45;;
2538;SDS011;1280;49.760;9.664;2022-11-20T05:20:58;40.88;;;21.48;;
2538;SDS011;1280;49.760;9.664;2022-11-20T05:23:26;59.33;;;30.70;;
2538;SDS011;1280;49.760;9.664;2022-11-20T05:25:55;71.22;;;33.97;;
2538;SDS011;1280;49.760;9.664;2022-11-20T05:28:26;55.78;;;29.40;;
2538;SDS011;1280;49.760;9.664;2022-11-20T05:30:55;53.60;;;24.88;;
2538;SDS011;1280;49.760;9.664;2022-11-20T05:33:23;43.13;;;23.35;;
2538;SDS011;1280;49.760;9.664;2022-11-20T05:35:51;41.95;;;22.23;;
2538;SDS011;1280;49.760;9.664;2022-11-20T05:38:19;61.58;;;31.00;;
2538;SDS011;1280;49.760;9.664;2022-11-20T05:40:47;41.92;;;22.38;;
2538;SDS011;1280;49.760;9.664;2022-11-20T05:43:15;41.15;;;20.40;;
2538;SDS011;1280;49.760;9.664;2022-11-20T05:45:50;45.95;;;23.65;;
2538;SDS011;1280;49.760;9.664;2022-11-20T05:48:19;42.00;;;22.58;;
2538;SDS011;1280;49.760;9.664;2022-11-20T05:50:47;44.65;;;22.02;;
2538;SDS011;1280;49.760;9.664;2022-11-20T05:53:15;39.47;;;19.83;;
2538;SDS011;1280;49.760;9.664;2022-11-20T05:55:43;40.03;;;20.35;;
2538;SDS011;1280;49.760;9.664;2022-11-20T05:58:11;75.28;;;33.83;;
2538;SDS011;1280;49.760;9.664;2022-11-20T06:00:39;50.85;;;23.45;;
2538;SDS011;1280;49.760;9.664;2022-11-20T06:03:09;51.72;;;25.70;;
2538;SDS011;1280;49.760;9.664;2022-11-20T06:05:37;51.15;;;25.33;;
2538;SDS011;1280;49.760;9.664;2022-11-20T06:08:04;50.53;;;25.35;;
2538;SDS011;1280;49.760;9.664;2022-11-20T06:10:32;48.50;;;24.90;;
2538;SDS011;1280;49.760;9.664;2022-11-20T06:13:00;51.30;;;25.30;;
2538;SDS011;1280;49.760;9.664;2022-11-20T06:15:28;47.60;;;24.67;;
2538;SDS011;1280;49.760;9.664;2022-11-20T06:17:56;53.03;;;23.95;;
2538;SDS011;1280;49.760;9.664;2022-11-20T06:20:26;45.60;;;21.88;;
2538;SDS011;1280;49.760;9.664;2022-11-20T06:22:54;39.70;;;20.42;;
2538;SDS011;1280;49.760;9.664;2022-11-20T06:25:22;39.22;;;19.20;;
2538;SDS011;1280;49.760;9.664;2022-11-20T06:27:50;43.55;;;21.40;;
2538;SDS011;1280;49.760;9.664;2022-11-20T06:30:19;38.38;;;21.45;;
2538;SDS011;1280;49.760;9.664;2022-11-20T06:32:46;46.88;;;21.90;;
2538;SDS011;1280;49.760;9.664;2022-11-20T06:35:14;41.45;;;21.20;;
2538;SDS011;1280;49.760;9.664;2022-11-20T06:37:44;45.85;;;21.70;;
2538;SDS011;1280;49.760;9.664;2022-11-20T06:40:12;44.33;;;22.70;;
2538;SDS011;1280;49.760;9.664;2022-11-20T06:42:40;43.85;;;22.17;;
2538;SDS011;1280;49.760;9.664;2022-11-20T06:45:09;42.45;;;21.45;;
2538;SDS011;1280;49.760;9.664;2022-11-20T06:47:37;41.45;;;20.90;;
2538;SDS011;1280;49.760;9.664;2022-11-20T06:50:06;40.95;;;22.25;;
2538;SDS011;1280;49.760;9.664;2022-11-20T06:52:34;47.30;;;21.70;;
2538;SDS011;1280;49.760;9.664;2022-11-20T06:55:10;44.45;;;22.23;;
2538;SDS011;1280;49.760;9.664;2022-11-20T06:57:38;43.35;;;22.40;;
2538;SDS011;1280;49.760;9.664;2022-11-20T07:00:07;47.22;;;22.38;;
2538;SDS011;1280;49.760;9.664;2022-11-20T07:02:36;42.22;;;21.60;;
2538;SDS011;1280;49.760;9.664;2022-11-20T07:05:04;45.20;;;21.40;;
2538;SDS011;1280;49.760;9.664;2022-11-20T07:07:33;46.55;;;23.33;;
2538;SDS011;1280;49.760;9.664;2022-11-20T07:10:01;47.97;;;21.92;;
2538;SDS011;1280;49.760;9.664;2022-11-20T07:12:30;50.97;;;23.30;;
2538;SDS011;1280;49.760;9.664;2022-11-20T07:14:58;45.38;;;22.02;;
2538;SDS011;1280;49.760;9.664;2022-11-20T07:17:26;42.42;;;20.13;;
2538;SDS011;1280;49.760;9.664;2022-11-20T07:19:54;45.78;;;22.23;;
2538;SDS011;1280;49.760;9.664;2022-11-20T07:22:22;47.05;;;23.50;;
2538;SDS011;1280;49.760;9.664;2022-11-20T07:24:50;46.80;;;24.95;;
2538;SDS011;1280;49.760;9.664;2022-11-20T07:27:18;47.10;;;22.38;;
2538;SDS011;1280;49.760;9.664;2022-11-20T07:29:47;46.92;;;23.67;;
2538;SDS011;1280;49.760;9.664;2022-11-20T07:32:15;49.08;;;22.95;;
2538;SDS011;1280;49.760;9.664;2022-11-20T07:34:43;47.35;;;22.58;;
2538;SDS011;1280;49.760;9.664;2022-11-20T07:37:11;48.55;;;21.45;;
2538;SDS011;1280;49.760;9.664;2022-11-20T07:39:39;49.13;;;22.20;;
2538;SDS011;1280;49.760;9.664;2022-11-20T07:42:08;41.63;;;20.58;;
2538;SDS011;1280;49.760;9.664;2022-11-20T07:44:36;47.17;;;25.65;;
2538;SDS011;1280;49.760;9.664;2022-11-20T07:47:05;48.72;;;26.27;;
2538;SDS011;1280;49.760;9.664;2022-11-20T07:49:33;39.85;;;21.27;;
2538;SDS011;1280;49.760;9.664;2022-11-20T07:52:01;32.30;;;17.67;;
2538;SDS011;1280;49.760;9.664;2022-11-20T07:54:30;35.28;;;17.60;;
2538;SDS011;1280;49.760;9.664;2022-11-20T07:56:58;32.17;;;16.55;;
2538;SDS011;1280;49.760;9.664;2022-11-20T07:59:27;31.70;;;15.30;;
2538;SDS011;1280;49.760;9.664;2022-11-20T08:01:55;30.17;;;16.83;;
2538;SDS011;1280;49.760;9.664;2022-11-20T08:04:24;29.85;;;16.73;;
2538;SDS011;1280;49.760;9.664;2022-11-20T08:06:52;29.73;;;15.18;;
2538;SDS011;1280;49.760;9.664;2022-11-20T08:09:20;31.70;;;15.65;;
2538;SDS011;1280;49.760;9.664;2022-11-20T08:11:48;31.33;;;15.70;;
2538;SDS011;1280;49.760;9.664;2022-11-20T08:14:34;30.88;;;15.43;;
2538;SDS011;1280;49.760;9.664;2022-11-20T08:17:02;30.10;;;15.73;;
2538;SDS011;1280;49.760;9.664;2022-11-20T08:19:31;30.67;;;15.95;;
2538;SDS011;1280;49.760;9.664;2022-11-20T08:21:59;32.45;;;15.82;;
2538;SDS011;1280;49.760;9.664;2022-11-20T08:24:27;31.80;;;15.85;;
2538;SDS011;1280;49.760;9.664;2022-11-20T08:26:56;33.25;;;15.20;;
2538;SDS011;1280;49.760;9.664;2022-11-20T08:29:25;31.73;;;16.20;;
2538;SDS011;1280;49.760;9.664;2022-11-20T08:31:53;32.67;;;16.92;;
2538;SDS011;1280;49.760;9.664;2022-11-20T08:34:21;29.58;;;16.17;;
2538;SDS011;1280;49.760;9.664;2022-11-20T08:36:51;28.23;;;15.25;;
2538;SDS011;1280;49.760;9.664;2022-11-20T08:39:19;30.13;;;15.68;;
2538;SDS011;1280;49.760;9.664;2022-11-20T08:41:47;34.65;;;16.30;;
2538;SDS011;1280;49.760;9.664;2022-11-20T08:44:15;31.02;;;15.65;;
2538;SDS011;1280;49.760;9.664;2022-11-20T08:46:43;30.65;;;14.20;;
2538;SDS011;1280;49.760;9.664;2022-11-20T08:49:12;31.17;;;15.68;;
2538;SDS011;1280;49.760;9.664;2022-11-20T08:51:41;29.83;;;15.30;;
2538;SDS011;1280;49.760;9.664;2022-11-20T08:54:11;31.33;;;15.77;;
2538;SDS011;1280;49.760;9.664;2022-11-20T08:56:39;34.33;;;17.15;;
2538;SDS011;1280;49.760;9.664;2022-11-20T08:59:07;35.90;;;15.90;;
2538;SDS011;1280;49.760;9.664;2022-11-20T09:01:55;30.33;;;17.08;;
2538;SDS011;1280;49.760;9.664;2022-11-20T09:04:24;25.08;;;14.30;;
2538;SDS011;1280;49.760;9.664;2022-11-20T09:06:52;30.45;;;16.25;;
2538;SDS011;1280;49.760;9.664;2022-11-20T09:09:22;31.27;;;16.63;;
2538;SDS011;1280;49.760;9.664;2022-11-20T09:11:50;26.60;;;14.45;;
2538;SDS011;1280;49.760;9.664;2022-11-20T09:14:18;26.45;;;14.07;;
2538;SDS011;1280;49.760;9.664;2022-11-20T09:16:46;22.40;;;12.68;;
2538;SDS011;1280;49.760;9.664;2022-11-20T09:19:14;26.85;;;14.93;;
2538;SDS011;1280;49.760;9.664;2022-11-20T09:22:02;26.42;;;13.57;;
2538;SDS011;1280;49.760;9.664;2022-11-20T09:24:31;25.95;;;13.55;;
2538;SDS011;1280;49.760;9.664;2022-11-20T09:27:01;27.25;;;14.15;;
2538;SDS011;1280;49.760;9.664;2022-11-20T09:29:30;29.80;;;14.23;;
2538;SDS011;1280;49.760;9.664;2022-11-20T09:31:58;28.65;;;14.43;;
2538;SDS011;1280;49.760;9.664;2022-11-20T09:34:26;30.58;;;15.48;;
2538;SDS011;1280;49.760;9.664;2022-11-20T09:36:54;27.77;;;14.55;;
2538;SDS011;1280;49.760;9.664;2022-11-20T09:39:25;30.10;;;15.23;;
2538;SDS011;1280;49.760;9.664;2022-11-20T09:42:01;29.83;;;15.98;;
2538;SDS011;1280;49.760;9.664;2022-11-20T09:44:40;32.05;;;15.63;;
2538;SDS011;1280;49.760;9.664;2022-11-20T09:47:22;36.13;;;17.98;;
2538;SDS011;1280;49.760;9.664;2022-11-20T09:50:03;37.08;;;17.55;;
2538;SDS011;1280;49.760;9.664;2022-11-20T09:52:45;32.55;;;16.90;;
2538;SDS011;1280;49.760;9.664;2022-11-20T09:55:21;34.83;;;17.73;;
2538;SDS011;1280;49.760;9.664;2022-11-20T09:57:51;33.20;;;16.42;;
2538;SDS011;1280;49.760;9.664;2022-11-20T10:00:19;39.50;;;17.02;;
2538;SDS011;1280;49.760;9.664;2022-11-20T10:02:51;36.92;;;17.90;;
2538;SDS011;1280;49.760;9.664;2022-11-20T10:05:22;32.05;;;15.38;;
2538;SDS011;1280;49.760;9.664;2022-11-20T10:07:55;28.67;;;14.90;;
2538;SDS011;1280;49.760;9.664;2022-11-20T10:10:40;30.33;;;15.55;;
2538;SDS011;1280;49.760;9.664;2022-11-20T10:13:23;28.50;;;14.70;;
2538;SDS011;1280;49.760;9.664;2022-11-20T10:16:08;26.30;;;13.60;;
2538;SDS011;1280;49.760;9.664;2022-11-20T10:18:54;21.20;;;12.38;;
2538;SDS011;1280;49.760;9.664;2022-11-20T10:21:35;22.40;;;12.82;;
2538;SDS011;1280;49.760;9.664;2022-11-20T10:24:24;23.40;;;13.30;;
2538;SDS011;1280;49.760;9.664;2022-11-20T10:27:03;22.65;;;12.02;;
2538;SDS011;1280;49.760;9.664;2022-11-20T10:29:52;19.80;;;11.70;;
2538;SDS011;1280;49.760;9.664;2022-11-20T10:32:30;19.30;;;10.18;;
2538;SDS011;1280;49.760;9.664;2022-11-20T10:35:04;21.88;;;10.98;;
2538;SDS011;1280;49.760;9.664;2022-11-20T10:37:42;19.08;;;9.95;;
2538;SDS011;1280;49.760;9.664;2022-11-20T10:40:17;19.27;;;9.38;;
2538;SDS011;1280;49.760;9.664;2022-11-20T10:42:49;15.88;;;9.40;;
2538;SDS011;1280;49.760;9.664;2022-11-20T10:45:31;17.75;;;10.25;;
2538;SDS011;1280;49.760;9.664;2022-11-20T10:48:15;18.92;;;9.60;;
2538;SDS011;1280;49.760;9.664;2022-11-20T10:50:48;17.95;;;10.45;;
2538;SDS011;1280;49.760;9.664;2022-11-20T10:53:26;20.48;;;10.73;;
2538;SDS011;1280;49.760;9.664;2022-11-20T10:56:09;19.73;;;10.45;;
2538;SDS011;1280;49.760;9.664;2022-11-20T10:58:45;20.00;;;10.52;;
2538;SDS011;1280;49.760;9.664;2022-11-20T11:01:23;18.50;;;10.48;;
2538;SDS011;1280;49.760;9.664;2022-11-20T11:03:53;15.45;;;9.10;;
2538;SDS011;1280;49.760;9.664;2022-11-20T11:06:25;15.13;;;8.18;;
2538;SDS011;1280;49.760;9.664;2022-11-20T11:09:00;18.27;;;8.93;;
2538;SDS011;1280;49.760;9.664;2022-11-20T11:11:48;15.93;;;8.95;;
2538;SDS011;1280;49.760;9.664;2022-11-20T11:14:16;18.30;;;9.43;;
2538;SDS011;1280;49.760;9.664;2022-11-20T11:16:50;18.15;;;9.10;;
2538;SDS011;1280;49.760;9.664;2022-11-20T11:19:19;18.15;;;10.25;;
2538;SDS011;1280;49.760;9.664;2022-11-20T11:21:49;16.52;;;9.45;;
2538;SDS011;1280;49.760;9.664;2022-11-20T11:24:22;17.73;;;10.02;;
2538;SDS011;1280;49.760;9.664;2022-11-20T11:27:10;17.27;;;9.32;;
2538;SDS011;1280;49.760;9.664;2022-11-20T11:29:43;15.75;;;9.30;;
2538;SDS011;1280;49.760;9.664;2022-11-20T11:32:13;18.70;;;10.05;;
2538;SDS011;1280;49.760;9.664;2022-11-20T11:34:42;16.95;;;9.77;;
2538;SDS011;1280;49.760;9.664;2022-11-20T11:37:11;18.35;;;10.25;;
2538;SDS011;1280;49.760;9.664;2022-11-20T11:39:44;19.33;;;10.43;;
2538;SDS011;1280;49.760;9.664;2022-11-20T11:42:34;21.08;;;11.05;;
2538;SDS011;1280;49.760;9.664;2022-11-20T11:45:05;23.50;;;11.88;;
2538;SDS011;1280;49.760;9.664;2022-11-20T11:47:36;22.83;;;11.27;;
2538;SDS011;1280;49.760;9.664;2022-11-20T11:50:17;23.08;;;11.25;;
2538;SDS011;1280;49.760;9.664;2022-11-20T11:52:53;23.45;;;11.50;;
2538;SDS011;1280;49.760;9.664;2022-11-20T11:55:27;21.17;;;11.18;;
2538;SDS011;1280;49.760;9.664;2022-11-20T11:58:06;20.50;;;11.55;;
2538;SDS011;1280;49.760;9.664;2022-11-20T12:00:51;21.55;;;11.45;;
2538;SDS011;1280;49.760;9.664;2022-11-20T12:03:27;20.73;;;11.15;;
2538;SDS011;1280;49.760;9.664;2022-11-20T12:06:01;21.50;;;10.05;;
2538;SDS011;1280;49.760;9.664;2022-11-20T12:08:38;18.80;;;10.20;;
2538;SDS011;1280;49.760;9.664;2022-11-20T12:11:12;26.27;;;10.57;;
2538;SDS011;1280;49.760;9.664;2022-11-20T12:13:46;21.17;;;11.05;;
2538;SDS011;1280;49.760;9.664;2022-11-20T12:16:20;17.25;;;9.18;;
2538;SDS011;1280;49.760;9.664;2022-11-20T12:18:50;17.80;;;9.80;;
2538;SDS011;1280;49.760;9.664;2022-11-20T12:21:19;19.60;;;10.75;;
2538;SDS011;1280;49.760;9.664;2022-11-20T12:23:58;20.60;;;11.32;;
2538;SDS011;1280;49.760;9.664;2022-11-20T12:26:43;18.20;;;9.73;;
2538;SDS011;1280;49.760;9.664;2022-11-20T12:29:31;17.98;;;9.73;;
2538;SDS011;1280;49.760;9.664;2022-11-20T12:32:22;19.88;;;10.05;;
2538;SDS011;1280;49.760;9.664;2022-11-20T12:35:07;17.08;;;8.93;;
2538;SDS011;1280;49.760;9.664;2022-11-20T12:37:45;16.60;;;8.88;;
2538;SDS011;1280;49.760;9.664;2022-11-20T12:40:27;20.55;;;10.65;;
2538;SDS011;1280;49.760;9.664;2022-11-20T12:43:01;19.33;;;9.68;;
2538;SDS011;1280;49.760;9.664;2022-11-20T12:46:02;22.83;;;11.23;;
2538;SDS011;1280;49.760;9.664;2022-11-20T12:48:46;17.88;;;9.98;;
2538;SDS011;1280;49.760;9.664;2022-11-20T12:51:29;18.00;;;10.32;;
2538;SDS011;1280;49.760;9.664;2022-11-20T12:54:08;17.95;;;9.38;;
2538;SDS011;1280;49.760;9.664;2022-11-20T12:57:03;21.83;;;11.00;;
2538;SDS011;1280;49.760;9.664;2022-11-20T12:59:43;16.30;;;9.40;;
2538;SDS011;1280;49.760;9.664;2022-11-20T13:02:23;18.02;;;9.80;;
2538;SDS011;1280;49.760;9.664;2022-11-20T13:07:55;17.55;;;9.73;;
2538;SDS011;1280;49.760;9.664;2022-11-20T13:10:26;18.40;;;9.55;;
2538;SDS011;1280;49.760;9.664;2022-11-20T13:13:02;15.82;;;8.85;;
2538;SDS011;1280;49.760;9.664;2022-11-20T13:15:43;17.13;;;9.95;;
2538;SDS011;1280;49.760;9.664;2022-11-20T13:18:18;15.60;;;9.70;;
2538;SDS011;1280;49.760;9.664;2022-11-20T13:20:46;19.35;;;9.13;;
2538;SDS011;1280;49.760;9.664;2022-11-20T13:23:26;17.52;;;9.55;;
2538;SDS011;1280;49.760;9.664;2022-11-20T13:26:05;18.17;;;9.00;;
2538;SDS011;1280;49.760;9.664;2022-11-20T13:28:34;14.93;;;8.45;;
2538;SDS011;1280;49.760;9.664;2022-11-20T13:31:03;16.42;;;8.50;;
2538;SDS011;1280;49.760;9.664;2022-11-20T13:33:31;14.23;;;9.07;;
2538;SDS011;1280;49.760;9.664;2022-11-20T13:36:02;14.25;;;8.65;;
2538;SDS011;1280;49.760;9.664;2022-11-20T13:38:41;13.95;;;8.27;;
2538;SDS011;1280;49.760;9.664;2022-11-20T13:41:11;13.40;;;8.30;;
2538;SDS011;1280;49.760;9.664;2022-11-20T13:44:04;16.30;;;8.57;;
2538;SDS011;1280;49.760;9.664;2022-11-20T13:46:40;13.10;;;8.25;;
2538;SDS011;1280;49.760;9.664;2022-11-20T13:49:16;13.27;;;7.82;;
2538;SDS011;1280;49.760;9.664;2022-11-20T13:51:46;14.45;;;8.75;;
2538;SDS011;1280;49.760;9.664;2022-11-20T13:54:29;16.65;;;9.55;;
2538;SDS011;1280;49.760;9.664;2022-11-20T13:57:25;13.35;;;8.02;;
2538;SDS011;1280;49.760;9.664;2022-11-20T14:00:09;15.57;;;8.93;;
2538;SDS011;1280;49.760;9.664;2022-11-20T14:02:40;14.60;;;8.38;;
2538;SDS011;1280;49.760;9.664;2022-11-20T14:05:15;16.27;;;8.50;;
2538;SDS011;1280;49.760;9.664;2022-11-20T14:07:47;12.70;;;7.50;;
2538;SDS011;1280;49.760;9.664;2022-11-20T14:10:23;13.75;;;8.50;;
2538;SDS011;1280;49.760;9.664;2022-11-20T14:12:57;13.25;;;7.28;;
2538;SDS011;1280;49.760;9.664;2022-11-20T14:15:27;11.60;;;7.13;;
2538;SDS011;1280;49.760;9.664;2022-11-20T14:17:56;16.02;;;8.23;;
2538;SDS011;1280;49.760;9.664;2022-11-20T14:20:26;14.50;;;8.25;;
2538;SDS011;1280;49.760;9.664;2022-11-20T14:22:57;17.17;;;9.15;;
2538;SDS011;1280;49.760;9.664;2022-11-20T14:25:26;15.48;;;9.25;;
2538;SDS011;1280;49.760;9.664;2022-11-20T14:27:57;13.98;;;7.97;;
2538;SDS011;1280;49.760;9.664;2022-11-20T14:30:27;14.93;;;9.07;;
2538;SDS011;1280;49.760;9.664;2022-11-20T14:33:00;15.27;;;9.30;;
2538;SDS011;1280;49.760;9.664;2022-11-20T14:35:31;19.98;;;12.35;;
2538;SDS011;1280;49.760;9.664;2022-11-20T14:38:02;21.15;;;14.77;;
2538;SDS011;1280;49.760;9.664;2022-11-20T14:40:32;23.35;;;13.70;;
2538;SDS011;1280;49.760;9.664;2022-11-20T14:43:14;19.15;;;12.68;;
2538;SDS011;1280;49.760;9.664;2022-11-20T14:45:46;20.48;;;16.38;;
2538;SDS011;1280;49.760;9.664;2022-11-20T14:48:23;26.00;;;18.33;;
2538;SDS011;1280;49.760;9.664;2022-11-20T14:50:55;20.25;;;14.93;;
2538;SDS011;1280;49.760;9.664;2022-11-20T14:53:23;23.70;;;16.35;;
2538;SDS011;1280;49.760;9.664;2022-11-20T14:55:58;24.90;;;17.90;;
2538;SDS011;1280;49.760;9.664;2022-11-20T14:58:27;27.40;;;16.35;;
2538;SDS011;1280;49.760;9.664;2022-11-20T15:00:58;28.63;;;18.73;;
2538;SDS011;1280;49.760;9.664;2022-11-20T15:03:31;32.03;;;21.48;;
2538;SDS011;1280;49.760;9.664;2022-11-20T15:06:00;26.30;;;16.65;;
2538;SDS011;1280;49.760;9.664;2022-11-20T15:08:28;20.42;;;11.90;;
2538;SDS011;1280;49.760;9.664;2022-11-20T15:10:59;16.38;;;9.73;;
2538;SDS011;1280;49.760;9.664;2022-11-20T15:13:29;18.85;;;10.60;;
2538;SDS011;1280;49.760;9.664;2022-11-20T15:16:00;17.73;;;10.00;;
2538;SDS011;1280;49.760;9.664;2022-11-20T15:18:30;17.73;;;10.73;;
2538;SDS011;1280;49.760;9.664;2022-11-20T15:21:00;19.48;;;13.40;;
2538;SDS011;1280;49.760;9.664;2022-11-20T15:23:30;20.45;;;12.65;;